x

9410840 - Santa Monica Pier (icac1) Weather Station

5:00 - Wed 29th Mar 2017 All times are PDT. -7 hours from GMT.

  • Wind
    5mph, 6mph gusts
  • Sea Temp 61°f
  • Ar Temp 65°f
  • Sea Pressure 1016mb
  • 9410840 - Santa Monica Pier
  • 9410840 - Santa Monica Pier

More Historic Weather Station data

Upgrade to MSW Pro to gain access to the past 30 days of data for over 8000 Wavebouys and Weather Stations around the globe.

Join Pro

Comparision Forecast

View Surf forecast
   
Qua 03/29 5:00 5 6 mph 1016mb 61f 65f
4:54 5 8 mph 1016mb 61f 64f
4:48 6 7 mph - - -
4:42 5 6 mph 1016.1mb 61f 64f
4:36 2 3 mph 1016.2mb 61f 66f
4:30 2 3 mph 1016.2mb 60f 66f
4:24 1 2 mph 1016.4mb 61f 66f
4:18 2 5 mph - - -
4:12 5
mph
1016.5mb 60f 63f
4:06 3 6 mph 1016.5mb 61f 63f
4:00 5 8 mph 1016.6mb 60f 63f
3:54 5 7 mph 1016.6mb 60f 64f
3:48 6 7 mph 1016.6mb - -
3:42 6 7 mph 1016.7mb 60f 63f
3:36 3
mph
1016.6mb 60f 65f
3:30 2 3 mph 1016.7mb 60f 65f
3:24 2 5 mph 1016.7mb 60f 64f
3:18 5 6 mph - - -
3:12 5 6 mph 1016.8mb 60f 64f
3:06 3 5 mph 1016.9mb 60f 64f
3:00 5 6 mph 1016.8mb 60f 63f
2:54 5
mph
1016.8mb 60f 63f
2:48 5
mph
- - -
2:42 3 5 mph 1016.7mb 60f 64f
2:36 2 5 mph 1016.8mb 60f 64f
2:30 5
mph
1016.9mb 60f 63f
2:24 3 5 mph 1017mb 60f 63f
2:18 5 6 mph 1017.1mb 60f 62f
2:12 5 6 mph 1017.2mb 60f 62f
2:06 3 5 mph 1017.3mb 60f 63f
2:00 2 3 mph 1017.3mb 60f 63f
1:54 3 5 mph 1017.5mb 60f 62f
1:48 3 5 mph 1017.5mb 60f 62f
1:42 5
mph
1017.5mb 60f 62f
1:36 3 5 mph 1017.5mb 60f 62f
1:30 3 5 mph 1017.6mb 60f 62f
1:24 3 5 mph 1017.6mb 60f 62f
1:18 5 6 mph 1017.7mb 60f 62f
1:12 5 6 mph 1017.7mb 60f 62f
1:06 6 7 mph 1017.7mb 60f 62f
1:00 5 6 mph 1017.7mb 60f 62f
12:54 6
mph
1017.8mb 59f 62f
12:48 6
mph
1017.8mb 59f 62f
12:42 5 6 mph 1017.8mb 59f 62f
12:36 3 5 mph 1017.8mb 59f 62f
12:30 3 6 mph 1017.8mb 59f 62f
12:24 5 6 mph 1017.9mb 59f 61f
12:18 6
mph
1017.9mb 59f 61f
12:12 5 6 mph 1017.9mb 59f 62f
12:06 5 6 mph 1017.9mb 59f 61f
12:00 6
mph
1017.9mb 58f 61f
11:54 5 7 mph 1017.9mb 58f 61f
11:48 3 5 mph 1017.9mb 58f 62f
11:42 5
mph
1017.9mb 58f 61f
11:36 2 3 mph 1018mb 58f 62f
11:30 2
mph
1017.9mb 58f 62f
11:24 1 2 mph 1018mb 58f 62f
11:18 2 6 mph 1018.1mb 58f 61f
11:12 6
mph
1018mb 58f 60f
11:06 5 6 mph 1017.8mb 58f 61f
11:00 6 7 mph 1017.9mb 58f 60f
10:54 6
mph
1017.9mb 58f 60f
10:48 5 6 mph 1017.8mb 58f 60f
10:42 5 6 mph 1017.8mb 58f 60f
10:36 3 5 mph 1017.9mb 58f 60f
10:30 5 6 mph 1018mb 58f 60f
10:24 5 7 mph 1018mb 58f 60f
10:18 6 7 mph 1017.9mb 58f 60f
10:12 6
mph
1017.9mb 58f 60f
10:06 6
mph
1017.9mb 58f 60f
10:00 6
mph
1017.9mb 58f 60f
9:54 5 6 mph 1017.8mb 58f 60f
9:48 5 7 mph 1017.8mb 58f 60f
9:42 6
mph
1017.7mb 58f 61f
9:36 5 6 mph 1017.7mb 58f 62f
9:30 5
mph
1017.7mb 58f 62f
9:24 2 3 mph 1017.7mb 58f 62f
9:18 3 5 mph - - -
9:12 2 3 mph 1017.7mb 58f 63f
9:06 3
mph
1017.7mb 58f 62f
9:00 3 5 mph 1017.6mb 58f 63f
8:54 2 3 mph 1017.6mb 58f 64f
8:48 3 6 mph 1017.6mb 58f 64f
8:42 5 6 mph 1017.5mb 58f 63f
8:36 5 6 mph 1017.5mb 58f 64f
8:30 5
mph
1017.4mb 57f 63f
8:24 5
mph
1017.5mb 57f 63f
8:18 2 3 mph 1017.3mb 57f 62f
8:12 2 6 mph 1017.3mb 57f 62f
8:06 3 5 mph 1017.3mb 57f 62f
8:00 3 5 mph 1017.2mb 57f 61f
7:54 2 6 mph 1017.1mb 57f 61f
7:48 5
mph
1017mb 57f 60f
7:42 3 5 mph 1017mb 57f 61f
7:36 3 5 mph 1016.9mb 57f 60f
7:30 3 5 mph 1016.8mb 57f 60f
7:24 5
mph
1016.8mb 57f 60f
7:18 3 5 mph 1016.7mb 58f 59f
7:12 3
mph
1016.5mb 58f 59f
7:06 2 3 mph 1016.6mb 58f 59f
7:00 3 5 mph 1016.5mb 58f 58f
6:54 5 7 mph 1016.5mb 58f 58f
6:48 6
mph
1016.4mb 58f 58f
6:42 5 7 mph 1016.4mb 58f 58f
6:36 6 8 mph 1016.3mb 58f 58f
6:30 8
mph
1016.2mb 58f 58f
6:24 5 6 mph 1016.2mb 58f 58f
6:18 5 6 mph 1016.1mb 58f 58f
6:12 5 7 mph 1016.2mb 58f 58f
6:06 3 6 mph 1016.1mb 58f 59f
6:00 6
mph
1016mb 58f 59f
5:54 5 6 mph 1015.9mb 58f 59f
5:48 5 6 mph 1016mb 58f 59f
5:42 6 7 mph 1016.1mb 58f 59f
5:36 5
mph
1016.1mb 58f 59f
5:30  -  3 mph 1016.1mb 58f 59f
5:24 2 3 mph 1016.1mb 58f 60f
5:18 1 5 mph 1016.1mb 58f 60f
5:12 3 5 mph 1016mb 58f 60f
5:06 3 6 mph 1016mb 58f 61f
5:00 3
mph
1016mb 58f 60f
4:54 2
mph
1015.9mb 58f 60f
4:48  -  2 mph 1015.8mb 58f 60f
4:42 1 3 mph 1015.8mb 58f 60f
4:36 5 6 mph 1015.8mb 58f 60f
4:30 2
mph
1015.7mb 58f 61f
4:24 2 6 mph 1015.7mb 58f 62f
4:18 3 6 mph 1015.8mb 58f 62f
4:12 5 7 mph 1015.7mb 58f 62f
4:06 5 6 mph 1015.7mb 58f 62f
4:00 1 2 mph 1015.8mb 58f 62f
3:54 2 8 mph 1015.8mb 58f 63f
3:48 7 8 mph 1015.8mb 58f 64f
3:42 7 10 mph 1015.9mb 58f 64f
3:36 7 8 mph 1015.9mb 58f 64f
3:30 6 8 mph 1015.8mb 58f 65f
3:24 8 11 mph 1015.8mb 58f 65f
3:18 8 9 mph 1015.9mb 58f 64f
3:12 8
mph
1015.9mb 58f 64f
3:06 6 7 mph 1016mb 58f 64f
3:00 7 10 mph 1016mb 58f 64f
2:54 9 10 mph 1016mb 58f 64f
2:48 10
mph
- - -
2:42 7 9 mph 1016.2mb 58f 63f
2:36 6 9 mph 1016.1mb 58f 65f
2:30 7 9 mph 1016.1mb 58f 65f
2:24 8 9 mph 1016.1mb 58f 64f
2:18 6 7 mph - - -
2:12 5 6 mph 1016.2mb 58f 64f
2:06 5 7 mph 1016.1mb 58f 65f
2:00 5 8 mph 1016.1mb 58f 64f
1:54 6 8 mph 1016.1mb 58f 64f
1:48 6 7 mph 1016.1mb 58f 65f
1:42 6 8 mph 1016.1mb 58f 64f
1:36 6 9 mph 1016.1mb 58f 65f
1:30 6 10 mph 1016mb 58f 65f
1:24 7 8 mph 1016mb 58f 65f
1:18 6 8 mph 1015.9mb 58f 66f
1:12 6 9 mph 1015.9mb 58f 67f
1:06 7 9 mph 1015.9mb 58f 67f
1:00 5 6 mph 1015.9mb 58f 66f
12:54 7 8 mph 1015.9mb 58f 67f
12:48 6 9 mph 1015.8mb 58f 68f
12:42 6 11 mph 1015.7mb 58f 68f
12:36 8 9 mph 1015.8mb 58f 68f
12:30 8 11 mph 1015.8mb 58f 69f
12:24 7 14 mph 1015.9mb 58f 69f
12:18 8 11 mph - - -
12:12 7 10 mph 1015.8mb 58f 69f
12:06 6 8 mph 1015.8mb 58f 69f
12:00 5 10 mph 1015.8mb 58f 69f
Ter 03/28 11:54 3 7 mph 1015.9mb 58f 69f
11:48 6 9 mph - - -
11:42 5 8 mph 1016mb 58f 69f
11:36 5 8 mph 1015.9mb 58f 69f
11:30 7 8 mph 1015.9mb 58f 68f
11:24 7 8 mph 1015.9mb 58f 67f
11:18 8 9 mph - - -
11:12 5 9 mph 1015.7mb 58f 68f
11:06 7 13 mph 1015.6mb 58f 68f
11:00 6 13 mph 1015.6mb 58f 68f
10:54 6 16 mph 1015.6mb 58f 69f
10:48 14 20 mph 1015.4mb 58f 70f
10:42 10 17 mph 1015.4mb 58f -
10:36 13 18 mph 1015.3mb 58f -
10:30 13 22 mph 1015.3mb 58f 69f
10:24 11 18 mph 1015.2mb 58f 70f
10:18 13 20 mph 1015.3mb 58f 70f
10:12 14 18 mph 1015.3mb 58f 70f
10:06 10 16 mph 1015.3mb 58f 70f
10:00 9 15 mph 1015.4mb 58f 70f
9:54 15 21 mph 1015.4mb 58f 70f
9:48 10 24 mph 1015.4mb 58f 70f
9:42 9 15 mph 1015.5mb 58f 70f
9:36 6 9 mph 1015.6mb 58f 69f
9:30 2 5 mph 1015.5mb 58f 67f
9:24 1 6 mph 1015.5mb 58f 66f
9:18 2 7 mph 1015.5mb 58f 65f
9:12 6 9 mph 1015.4mb 58f 65f
9:06 7 8 mph 1015.4mb 58f 62f
9:00 2 5 mph 1015.3mb 58f 64f
8:54 5 6 mph 1015.1mb 58f 63f
8:48 5 8 mph - - -
8:42 3 6 mph 1015mb 59f 65f
8:36 1 5 mph 1014.9mb 59f 67f
8:30 1 3 mph 1014.9mb 59f 65f
8:24 3 5 mph 1014.8mb 58f 64f
8:18 2 5 mph 1014.8mb 59f 64f
8:12 6 7 mph 1014.7mb 58f 64f
8:06 2 6 mph 1014.5mb 58f 66f
8:00 5 6 mph 1014.3mb 58f 67f
7:54 2 7 mph 1014.5mb 58f 65f
7:48 6 7 mph - - -
7:42 6 7 mph 1014.4mb 58f 65f
7:36 6 7 mph 1014.3mb 58f 66f
7:30 5 6 mph 1014.2mb 58f 66f
7:24 9 13 mph 1014.3mb 58f 65f
7:18 6 9 mph - - -
7:12 7 9 mph 1014.1mb 58f 65f
7:06 7 8 mph 1014.2mb 58f 64f
7:00 6 7 mph 1014mb 58f 64f
6:54 6 7 mph 1013.9mb 58f 63f
6:48 6 7 mph - - -
6:42 6 8 mph 1014mb 58f 62f
6:36 2 3 mph 1013.9mb 58f 62f
6:30 3 5 mph 1013.9mb 58f 62f
6:24 3 6 mph 1013.7mb 58f 62f
6:18 6 7 mph - - -
6:12 7
mph
1013.8mb 58f 65f
6:06 7 8 mph 1013.8mb 58f 62f
6:00 7 8 mph 1013.7mb 58f 64f
5:54 6 8 mph 1013.7mb 58f 62f
5:48 7 9 mph 1013.7mb 58f 62f
5:42 8 9 mph 1013.8mb 58f 64f
5:36 8
mph
1013.8mb 58f 64f
5:30 6 8 mph 1013.9mb 58f 64f
5:24 8 10 mph 1013.9mb 58f 63f
5:18 8 9 mph - - -
5:12 6 7 mph 1013.9mb 58f 63f
5:06 3 8 mph 1014mb 59f 62f
5:00 7 8 mph 1014mb 59f 64f
4:54 5
mph
1014mb 59f 65f
4:48 3 7 mph - - -
4:42 7
mph
1014.1mb 59f 61f
4:36 6
mph
1014mb 59f 64f
4:30 5 6 mph 1014.2mb 58f 66f
4:24 3 5 mph 1014.1mb 58f 65f
4:18 3 5 mph - - -
4:12 5 7 mph 1014.5mb 58f 64f
4:06 7
mph
1014.6mb 58f 64f
4:00 6
mph
1014.5mb 58f 64f
3:54 3 5 mph 1014.7mb 58f 67f
3:48 1 2 mph - - -
3:42 1 2 mph 1014.8mb 58f 69f
3:36  -  2 mph 1014.8mb 58f 69f
3:30 1 2 mph 1014.8mb 58f 67f
3:24 1 3 mph 1014.9mb 58f 65f
3:18 3 6 mph - - -
3:12 2 3 mph 1015.1mb 58f 66f
3:06 2 3 mph 1015.1mb 58f 68f
3:00 2 5 mph 1015.2mb 58f 67f
2:54 3 7 mph 1015.2mb 58f 66f
2:48 6 7 mph - - -
2:42 5 9 mph 1015.5mb 58f 65f
2:36 6 7 mph 1015.4mb 58f 64f
2:30 3 6 mph 1015.6mb 58f 65f
2:24 3 8 mph 1015.7mb 58f 63f
2:18 8 10 mph - - -
2:12 8 9 mph 1015.9mb 58f 62f
2:06 8 9 mph 1016mb 58f 62f
2:00 9 11 mph 1016.1mb 58f 62f
1:54 9 13 mph 1016.1mb 58f 63f
1:48 11 13 mph 1016.2mb 58f 63f
1:42 11 13 mph 1016.2mb 58f 63f
1:36 11 14 mph 1016.2mb 58f 62f
1:30 13 14 mph 1016.1mb 58f 62f
1:24 13 14 mph 1016.3mb 58f 62f
1:18 13 14 mph 1016.3mb 58f 62f
1:12 11 13 mph 1016.5mb 58f 61f
1:06 10 13 mph 1016.6mb 58f 61f
1:00 9 11 mph 1016.7mb 58f 60f
12:54 9 11 mph 1016.8mb 58f 60f
12:48 7 13 mph 1016.9mb 57f 61f
12:42 11 13 mph 1016.8mb 57f 61f
12:36 11 13 mph 1016.9mb 57f 62f
12:30 13 15 mph 1016.8mb 57f 62f
12:24 14 15 mph 1016.8mb 57f 61f
12:18 13 15 mph 1016.9mb 57f 61f
12:12 14 16 mph 1017mb 57f 61f
12:06 14 15 mph 1017.2mb 57f 61f
12:00 11 14 mph 1017.1mb 57f 61f
11:54 14
mph
1017.1mb 57f 62f
11:48 10 14 mph 1017.2mb 57f 61f
11:42 13 16 mph 1017.3mb 57f 61f
11:36 16 18 mph 1017.2mb 57f 61f
11:30 14 16 mph 1017.3mb 57f 61f
11:24 11 15 mph 1017.3mb 57f 60f
11:18 14 16 mph 1017.2mb 57f 61f
11:12 14 15 mph 1017.2mb 57f 63f
11:06 13 16 mph 1017.4mb 57f 62f
11:00 14 16 mph 1017.3mb 57f 62f
10:54 15 16 mph 1017.3mb 57f 61f
10:48 16 18 mph 1017.2mb 57f 61f
10:42 16 20 mph 1017.3mb 57f 62f
10:36 16 18 mph 1017.3mb 57f 62f
10:30 11 14 mph 1017.1mb 57f 65f
10:24 9 13 mph 1017.2mb 57f 65f
10:18 9 11 mph 1017.2mb 57f 65f
10:12 6 16 mph 1017mb 57f 70f
10:06 10 20 mph 1016.8mb 57f 70f
10:00 8 15 mph 1016.8mb 57f 70f
9:54 6 13 mph 1016.9mb 57f 69f
9:48 6 14 mph 1016.8mb 57f 67f
9:42 9 22 mph 1016.7mb 57f 69f
9:36 17 26 mph 1016.6mb 57f 68f
9:30 15 28 mph 1016.7mb 57f 67f
9:24 18 24 mph 1016.7mb 57f 67f
9:18 22 28 mph 1016.6mb 57f 67f
9:12 18 25 mph 1016.8mb 57f 67f
9:06 20 29 mph 1016.8mb 57f 66f
9:00 18 28 mph 1016.7mb 57f 66f
8:54 21 28 mph 1016.8mb 57f 66f
8:48 22 25 mph 1016.9mb 57f 65f
8:42 22 29 mph 1016.8mb 57f 66f
8:36 16 24 mph 1016.8mb 57f 65f
8:30 25 33 mph 1016.7mb 57f 65f
8:24 20 26 mph 1016.5mb 57f 65f
8:18 21 30 mph 1016.5mb 57f 65f
8:12 20 26 mph 1016.4mb 57f 65f
8:06 23 31 mph 1016.3mb 57f 65f
8:00 18 26 mph 1016.4mb 57f 64f
7:54 15 26 mph 1016.5mb 57f 64f
7:48 18 25 mph 1016.5mb 57f 64f
7:36 20 29 mph 1016.4mb 57f 64f
7:30 16 24 mph 1016.3mb 57f 64f
7:12 30 39 mph 1015.8mb 57f 64f
7:00 26 37 mph 1015.5mb 57f 63f
6:54 25 38 mph 1015.3mb 57f 62f
6:48 29 37 mph 1015.1mb 57f 62f
6:30 21 32 mph 1015.1mb 57f 62f
6:24 22 34 mph 1015.1mb 57f 62f
6:12 17 28 mph 1014.9mb 57f 62f
6:06 22 30 mph 1014.6mb 57f 63f
6:00 21 34 mph 1014.6mb 57f 63f
5:54 30 39 mph 1014.4mb 57f 63f
5:48 26 41 mph - - -
5:36 29 38 mph 1014.3mb 57f 62f
5:30 24 37 mph 1014.5mb 57f 62f
5:24 24 40 mph 1014.4mb 57f 62f
5:18 30 46 mph 1014.2mb 57f 62f
5:12 37 47 mph 1013.9mb 57f 62f
5:06 40 53 mph 1014mb 57f 62f
5:00 40 51 mph 1013.9mb 57f 62f
4:54 41 52 mph 1013.9mb 57f 62f
4:48 44 53 mph 1013.8mb 57f 63f
4:42 39 49 mph 1013.9mb 57f 63f
4:36 34 47 mph 1014mb 57f 63f
4:30 40 53 mph 1014mb 57f 63f
4:24 41 51 mph 1014.1mb 57f 63f
4:18 37 49 mph 1014.1mb 57f 63f
4:12 36 48 mph 1014.2mb 57f 63f
4:06 30 52 mph 1014.4mb 57f 63f
4:00 32 47 mph 1014.4mb 57f 63f
3:54 23 31 mph 1014.7mb 57f 63f
3:48 16 28 mph 1014.8mb 57f 63f
3:42 17 26 mph 1014.9mb 57f 63f
3:36 15 26 mph 1015mb 57f 63f
3:30 5 22 mph 1015.1mb 57f 63f
3:24 6 16 mph 1015.2mb 57f 63f
3:18 6 16 mph 1015mb 57f 63f
3:12 3 20 mph 1015.1mb 57f 63f
3:06 6 15 mph 1015mb 57f 63f
3:00 14 30 mph 1015mb 57f 64f
2:54 22 33 mph 1014.9mb 57f 64f
2:48 17 31 mph 1014.8mb 57f 64f
2:42 16 32 mph 1014.9mb 58f 64f
2:36 16 33 mph 1014.8mb 58f 64f
2:30 16 32 mph 1014.7mb 58f 63f
2:24 20 28 mph 1014.8mb 58f 63f
2:18 23 34 mph 1014.8mb 58f 63f
2:12 20 30 mph 1014.9mb 58f 63f
2:06 21 30 mph 1015mb 58f 63f
2:00 23 34 mph 1015mb 58f 63f
1:54 24 45 mph 1014.9mb 58f 63f
1:48 31 47 mph 1014.7mb 58f 63f
1:42 25 41 mph 1014.8mb 58f 63f
1:36 32 44 mph 1014.8mb 59f 64f
1:30 33 45 mph 1014.7mb 59f 64f
1:24 29 41 mph 1014.7mb 59f 64f
1:18 30 37 mph 1014.8mb 59f 64f
1:12 30 43 mph 1015mb 59f 64f
1:06 31 43 mph 1015mb 59f 64f
1:00 29 41 mph 1015mb 59f 64f
12:54 32 44 mph 1014.6mb 60f 64f
12:48 33 47 mph 1014.6mb 60f 64f
12:42 31 46 mph 1014.5mb 60f 64f
12:36 32 46 mph 1014.6mb 60f 64f
12:30 36 47 mph 1014.3mb 60f 64f
12:24 36 46 mph 1014.4mb 60f 64f
12:18 30 41 mph 1014.6mb 60f 64f
12:12 33 43 mph 1014.9mb 60f 64f
12:06 28 36 mph 1015.1mb 60f 64f
12:00 31 45 mph 1015.2mb 60f 65f
Seg 03/27 11:54 32 41 mph 1015.1mb 60f 65f
11:48 31 45 mph - - -
11:42 31 44 mph 1015.1mb 60f 65f
11:36 29 38 mph 1015.3mb 60f 65f
11:30 31 38 mph 1015.1mb 61f 65f
11:24 30 40 mph 1015.2mb 61f 65f
11:18 31 41 mph 1015.4mb 61f 65f
11:12 25 36 mph 1015.4mb 61f 65f
11:06 29 37 mph 1015.4mb 61f 65f
11:00 31 36 mph 1015.5mb 61f 65f
10:54 26 33 mph 1015.5mb 61f 65f
10:48 25 39 mph 1015.7mb 61f 65f
10:42 29 38 mph 1015.8mb 61f 66f
10:36 29 37 mph 1016mb 61f 66f
10:30 16 23 mph 1016.3mb 61f 65f
10:24 9 17 mph 1016.6mb 62f 65f
10:18 8 14 mph 1016.7mb 62f 65f
10:12 8 15 mph 1016.6mb 62f 65f
10:06 13 21 mph 1016.2mb 62f 65f
10:00 13 25 mph 1016mb 62f 65f
9:54 16 28 mph 1015.9mb 62f 65f
9:48 21 25 mph 1015.7mb 62f 66f
9:42 16 24 mph 1015.7mb 62f 66f
9:36 13 20 mph 1015.9mb 62f 66f
9:30 10 25 mph 1015.8mb 62f 65f
9:24 17 24 mph 1015.6mb 62f 66f
9:18 17 24 mph 1015.4mb 62f 65f
9:12 17 25 mph 1015.2mb 62f 65f
9:06 17 24 mph 1015.4mb 62f 65f
9:00 14 17 mph 1015.3mb 62f 65f
8:54 11 18 mph 1015.4mb 62f 65f
8:48 9 14 mph 1015.4mb 62f 66f
8:42 10 14 mph 1015.4mb 62f 66f
8:36 8 11 mph 1015.3mb 62f 66f
8:30 10 17 mph 1015.1mb 62f 66f
8:24 15 20 mph 1014.7mb 62f 66f
8:18 16 20 mph 1014.5mb 62f 66f
8:12 10 14 mph 1014.3mb 62f 66f
8:06 10 14 mph 1014.3mb 62f 66f
8:00 7 10 mph 1014.3mb 62f 66f
7:54 7 9 mph 1014.2mb 62f 66f
7:48 8 16 mph 1014.1mb 62f 66f
7:42 11 20 mph 1014.1mb 62f 67f
7:36 14 30 mph 1014mb 62f 67f
7:30 16 25 mph 1013.9mb 62f 67f
7:24 11 16 mph 1013.9mb 62f 67f
7:18 14 18 mph - - -
7:12 13 16 mph 1014.1mb 63f 67f
7:06 16 25 mph 1013.9mb 63f 68f
7:00 11 16 mph 1013.9mb 63f 68f
6:54 13 25 mph 1013.9mb 63f 68f
6:48 17 24 mph - - -
6:42 17 22 mph 1013.8mb 63f 68f
6:36 16 25 mph 1013.9mb 63f 68f
6:30 15 22 mph 1014.1mb 63f 69f
6:24 20 24 mph 1013.8mb 63f 69f
6:18 17 29 mph - - -
6:12 17 25 mph 1013.6mb 63f 69f
6:06 5 14 mph 1013.9mb 63f 65f
6:00 9 16 mph 1014mb 63f 66f
5:54 9 14 mph 1014.1mb 63f 65f
5:48 8 16 mph - - -
5:42 14 16 mph 1014.3mb 63f 63f
5:36 11 16 mph 1014.4mb 63f 63f
5:30 15 20 mph 1014.5mb 63f 61f
5:24 15 21 mph 1014.6mb 63f 61f
5:18 20 23 mph - - -
5:12 23 25 mph 1014.6mb 63f 60f
5:06 16 21 mph 1014.5mb 63f 60f
5:00 18 23 mph 1014.5mb 63f 60f
4:54 14 18 mph 1014.5mb 63f 60f
4:48 13 18 mph - - -
4:42 16 22 mph 1014.9mb 63f 60f
4:36 15 20 mph 1014.9mb 63f 60f
4:30 18 21 mph 1015.1mb 63f 60f
4:24 20 25 mph 1014.9mb 62f 60f
4:18 24 29 mph - - -
4:12 25 29 mph 1014.6mb 62f 60f
4:06 23 26 mph 1014.5mb 62f 60f
4:00 22 24 mph 1014.7mb 62f 60f
3:54 21 24 mph 1014.7mb 62f 60f
3:48 18 23 mph 1014.8mb 62f 60f
3:42 22 25 mph 1014.8mb 62f 60f
3:36 23 26 mph 1014.9mb 62f 60f
3:30 22 26 mph 1014.8mb 62f 60f
3:24 23 28 mph 1014.8mb 62f 60f
3:18 24 26 mph - - -
3:12 22 26 mph 1015mb 62f 60f
3:06 23 26 mph 1015.1mb 62f 59f
3:00 23 25 mph 1015.2mb 62f 59f
2:54 22 24 mph 1015.2mb 62f 60f
2:48 20 23 mph - - -
2:42 17 21 mph 1015.5mb 62f 60f
2:36 15 18 mph 1015.7mb 62f 60f
2:30 16 18 mph 1015.7mb 62f 60f
2:24 16 18 mph 1015.6mb 62f 60f
2:18 16 18 mph 1015.6mb 62f 59f
2:12 16 18 mph 1015.6mb 62f 59f
2:06 14 16 mph 1015.8mb 62f 59f
2:00 11 16 mph 1015.9mb 62f 59f
1:54 15 16 mph 1015.9mb 62f 59f
1:48 14 16 mph 1016mb 62f 59f
1:42 14 15 mph 1016.1mb 62f 58f
1:36 14
mph
1016.1mb 62f 58f
1:30 13 14 mph 1016.2mb 62f 58f
1:24 13 14 mph 1016.3mb 62f 58f
1:18 13 14 mph 1016.4mb 62f 59f
1:12 13 14 mph 1016.5mb 62f 59f
1:06 13 14 mph 1016.6mb 61f 58f
1:00 14 15 mph 1016.5mb 61f 58f
12:54 14
mph
1016.6mb 61f 58f
12:48 13 14 mph - - -
12:42 14 15 mph 1016.7mb 61f 58f
12:36 13
mph
1016.8mb 61f 58f
12:30 11 14 mph 1016.9mb 61f 58f
12:24 13 14 mph 1016.9mb 61f 58f
12:18 11 14 mph 1017.1mb 61f 58f
12:12 10 11 mph 1017.1mb 61f 58f
12:06 11 13 mph 1017.3mb 61f 58f
12:00 10 11 mph 1017.2mb 61f 58f
11:54 10 13 mph 1017.3mb 61f 58f
11:48 9 10 mph 1017.2mb 61f 58f
11:42 9 11 mph - 61f 58f
11:36 11 13 mph - 61f 58f
11:30 11 13 mph 1017.3mb - 58f
11:24 10 11 mph 1017.3mb - 58f
11:18 11
mph
1017.4mb - 58f
11:12 9 10 mph 1017.4mb 61f 58f
11:06 8 9 mph 1017.4mb 61f 59f
11:00 8 9 mph 1017.4mb 61f 59f
10:54 9
mph
1017.3mb 61f 59f
10:48 8 9 mph - - -
10:42 8 10 mph 1017.4mb 60f 59f
10:36 9 10 mph 1017.4mb 60f 59f
10:30 8 9 mph 1017.4mb 60f 59f
10:24 8 9 mph 1017.3mb 61f 59f
10:18 9 10 mph 1017.4mb 60f 59f
10:12 6 7 mph 1017.4mb 61f 60f
10:06 5 8 mph 1017.3mb 61f 63f
10:00 3 6 mph 1017.4mb 61f 63f
9:54 2 5 mph 1017.5mb 61f 63f
9:48 2 3 mph 1017.8mb 61f 63f
9:42 3 8 mph 1017.7mb 61f 62f
9:36 5 8 mph 1017.8mb 61f 61f
9:30 5 7 mph 1017.8mb 61f 61f
9:24 5 7 mph 1017.7mb 61f 61f
9:18 3 7 mph 1017.6mb 61f 61f
9:12 6 7 mph 1017.5mb 61f 61f
9:06 5 7 mph 1017.4mb 61f 60f
9:00 3 7 mph 1017.5mb 61f 60f
8:54 5 6 mph 1017.4mb 61f 60f
8:48 5 7 mph 1017.5mb 61f 59f
8:42 3 7 mph 1017.3mb 61f 59f
8:36 5 7 mph 1017.4mb 61f 59f
8:30 6 8 mph 1017.6mb 61f 58f
8:24 5 7 mph 1017.5mb 61f 58f
8:18 6 8 mph 1017.4mb 61f 57f
8:12 7 8 mph 1017.4mb 61f 57f
8:06 7 8 mph 1017.2mb 61f 56f
8:00 7 10 mph 1017.1mb 61f 56f
7:54 7 9 mph 1017mb 61f 56f
7:48 5 8 mph 1017mb 61f 56f
7:42 8 9 mph 1017mb 61f 56f
7:36 7 8 mph 1016.9mb 61f 56f
7:30 7 10 mph 1017mb 61f 55f
7:24 8 10 mph 1016.9mb 61f 55f
7:18 5
mph
1016.7mb 61f 56f
7:12 3 5 mph 1016.5mb 61f 55f
7:06 3 5 mph 1016.5mb 61f 55f
7:00 5 6 mph 1016.4mb 61f 55f
6:54 5 6 mph 1016.4mb 61f 55f
6:48 5 6 mph 1016.4mb 61f 55f
6:42 5 7 mph 1016.4mb 61f 55f
6:36 5 6 mph 1016.4mb 61f 55f
6:30 5 7 mph 1016.4mb 61f 55f
6:24 6 7 mph 1016.4mb 61f 55f
6:18 6 7 mph 1016.3mb 61f 55f
6:12 6 7 mph 1016.4mb 61f 55f
6:06 6 7 mph 1016.3mb 61f 55f
6:00 5 8 mph 1016.3mb 61f 55f
5:54 6 7 mph 1016.5mb 61f 55f
5:48 5 6 mph 1016.5mb 61f 55f
5:42 5 7 mph 1016.5mb 61f 55f
5:36 6 8 mph 1016.5mb 61f 55f
5:30 6 7 mph 1016.5mb 61f 55f
5:24 7 8 mph 1016.5mb 61f 55f
5:18 6 8 mph 1016.4mb 61f 55f
5:12 6 7 mph 1016.5mb 61f 55f
5:06 6 7 mph 1016.4mb 61f 55f
5:00 6 7 mph 1016.3mb 61f 55f
4:54 5 6 mph 1016.2mb 61f 55f
4:48 6 7 mph 1016.2mb 61f 55f
4:42 6 7 mph 1016.2mb 61f 55f
4:36 6
mph
1016.3mb 61f 55f
4:30 6 7 mph 1016.3mb 61f 55f
4:24 6 7 mph 1016.1mb 61f 56f
4:18 5 6 mph 1016.1mb 61f 56f
4:12 5 6 mph 1016mb 61f 56f
4:06 6 7 mph 1016mb 61f 56f
4:00 5 6 mph 1016mb 61f 56f
3:54 5 6 mph 1016.1mb 61f 56f
3:48 5
mph
1016.4mb 61f 56f
3:42 3 5 mph 1016.4mb 61f 56f
3:36 3 5 mph 1016.5mb 61f 56f
3:30 3 6 mph 1016.5mb 61f 56f
3:24 5 6 mph 1016.4mb 61f 56f
3:18 3 5 mph 1016.4mb 61f 56f
3:12 3 5 mph 1016.5mb 61f 56f
3:06 3 6 mph 1016.6mb 61f 56f
3:00 5 6 mph 1016.6mb 61f 56f
2:54 6
mph
1016.6mb 61f 56f
2:48 5 6 mph 1016.7mb 61f 56f
2:42 5 6 mph 1016.7mb 61f 56f
2:36 5 6 mph 1016.8mb 61f 56f
2:30 5 6 mph 1016.8mb 61f 56f
2:24 5 6 mph 1016.8mb 61f 56f
2:18 3 6 mph 1016.8mb 61f 56f
2:12 5 6 mph 1016.9mb 61f 56f
2:06 5 6 mph 1016.9mb 61f 56f
2:00 5 7 mph 1016.9mb 61f 56f
1:54 6
mph
1016.9mb 61f 56f
1:48 3 6 mph 1016.9mb 61f 56f
1:42 3 6 mph 1017mb 62f 56f
1:36 5 6 mph 1017.1mb 61f 56f
1:30 5 6 mph 1017mb 61f 56f
1:24 5 6 mph 1016.9mb 61f 56f
1:18 5 6 mph 1016.9mb 61f 56f
1:12 5
mph
1016.9mb 61f 57f
1:06 3 5 mph 1017mb 61f 57f
1:00 3
mph
1017mb 61f 57f
12:54 1 2 mph 1017mb 61f 57f
12:48  -  2 mph 1017.1mb 61f 57f
12:42  -  2 mph 1017.1mb 61f 57f
12:36 2 3 mph 1017.1mb 61f 57f
12:30  -  2 mph 1017.1mb 61f 57f
12:24 1 2 mph 1017mb 61f 57f
12:18 1 2 mph 1017mb 61f 57f
12:12  -  2 mph 1017mb 61f 57f
12:06 1 2 mph 1016.9mb 61f 57f
12:00  -  2 mph 1017mb 61f 57f
Dom 03/26 11:54  -  3 mph 1017mb 61f 57f
11:48 3 5 mph 1017.1mb 61f 57f
11:42 3 6 mph 1017.2mb 61f 57f
11:36 3 5 mph 1017.2mb 61f 57f
11:30 5 6 mph 1017.3mb 61f 57f
11:24 5 6 mph 1017.4mb 61f 57f
11:18 6 8 mph 1017.3mb 61f 57f
11:12 6
mph
1017.3mb 61f 58f
11:06 6 8 mph 1017.3mb 61f 58f
11:00 6 8 mph 1017.5mb 61f 58f
10:54 8 10 mph 1017.6mb 61f 58f
10:48 10 11 mph 1017.5mb 61f 58f
10:42 9 10 mph 1017.4mb 61f 58f
10:36 8 9 mph 1017.5mb 61f 58f
10:30 7 9 mph 1017.4mb 61f 58f
10:24 8 9 mph 1017.4mb 61f 58f
10:18 6 7 mph 1017.3mb 61f 58f
10:12 6 7 mph 1017.4mb 61f 58f
10:06 7 8 mph 1017.5mb 61f 58f
10:00 5 6 mph 1017.5mb 61f 58f
9:54 5 6 mph 1017.5mb 61f 58f
9:48 3 5 mph 1017.6mb 61f 58f
9:42 2 3 mph 1017.4mb 61f 58f
9:36 3 5 mph 1017.4mb 61f 58f
9:30 2 3 mph 1017.4mb 61f 58f
9:24  -  2 mph 1017.3mb 61f 58f
9:18 1 2 mph 1017.2mb 61f 58f
9:12 3
mph
1017.2mb 61f 58f
9:06 1 2 mph 1017.2mb 61f 58f
9:00 1 2 mph 1017.1mb 61f 57f
8:54 1 2 mph 1017.2mb 61f 58f
8:48 1 2 mph - - -
8:42 2
mph
1017mb 61f 58f
8:36  -  1 mph 1016.9mb 61f 58f
8:30 2 3 mph 1016.9mb 61f 58f
8:24 2 5 mph 1016.9mb 61f 58f
8:18 5 6 mph 1016.8mb 61f 58f
8:12 5 6 mph 1016.8mb 61f 58f
8:06 6
mph
1016.7mb 61f 58f
8:00 6 8 mph 1016.8mb 61f 58f
7:54 7 8 mph 1016.9mb 60f 58f
7:48 7 10 mph 1016.8mb 60f 58f
7:42 10 11 mph 1016.8mb 61f 58f
7:36 9 11 mph 1016.9mb 61f 58f
7:30 10 13 mph 1016.8mb 61f 58f
7:24 11 13 mph 1016.8mb 61f 58f
7:18 13 14 mph - - -
7:12 11 14 mph 1016.9mb 61f 58f
7:06 13 14 mph 1016.8mb 61f 58f
7:00 13 14 mph 1016.8mb 61f 58f
6:54 11 14 mph 1016.8mb 61f 58f
6:48 10 11 mph - - -
6:42 9 13 mph 1016.8mb 61f 58f
6:36 11 13 mph 1016.8mb 61f 58f
6:30 11 13 mph 1016.7mb 61f 58f
6:24 13
mph
1016.8mb 61f 58f
6:18 10 11 mph - - -
6:12 10 11 mph 1016.8mb 61f 59f
6:06 10 11 mph 1016.8mb 61f 59f
6:00 10 14 mph 1016.8mb 61f 59f
5:54 13 14 mph 1016.9mb 61f 59f
5:48 13 15 mph - - -
5:42 14 15 mph 1017.1mb 61f 59f
5:36 14 15 mph 1017.1mb 61f 59f
5:30 14 15 mph 1017.1mb 61f 59f
5:24 14 16 mph 1017.2mb 61f 59f
5:18 14 15 mph - - -
5:12 13 14 mph 1017.2mb 61f 59f
5:06 13 14 mph 1017.2mb 61f 59f
5:00 11 13 mph 1017.3mb 61f 59f
4:54 11 13 mph 1017.3mb 61f 59f
4:48 10 11 mph - - -
4:42 10 11 mph 1017.3mb 61f 59f
4:36 9 10 mph 1017.3mb 61f 59f
4:30 10 11 mph 1017.3mb 61f 59f
4:24 11 13 mph 1017.3mb 61f 59f
4:18 11 14 mph 1017.5mb 61f 59f
4:12 13 14 mph 1017.6mb 61f 59f
4:06 11 13 mph 1017.6mb 61f 59f
4:00 11 13 mph 1017.6mb 61f 59f
3:54 11 14 mph 1017.6mb 61f 59f
3:48 14 15 mph - - -
3:42 14 15 mph 1017.7mb 61f 58f
3:36 14 15 mph 1017.9mb 61f 58f
3:30 14 15 mph 1018mb 61f 59f
3:24 14 15 mph 1017.9mb 61f 59f
3:18 13 15 mph - - -
3:12 14 16 mph 1018mb 61f 59f
3:06 15 16 mph 1018.1mb 61f 59f
3:00 13 16 mph 1018.2mb 61f 59f
2:54 14 15 mph 1018.2mb 61f 59f
2:48 13 15 mph - - -
2:42 14 15 mph 1018.2mb 61f 59f
2:36 14 15 mph 1018.2mb 61f 59f
2:30 13 14 mph 1018.2mb 61f 59f
2:24 13 15 mph 1018.2mb 61f 59f
2:18 14
mph
1018.4mb 61f 59f
2:12 14
mph
1018.5mb 61f 59f
2:06 14
mph
1018.5mb 61f 59f
2:00 14
mph
1018.5mb 61f 59f
1:54 13 14 mph 1018.5mb 61f 59f
1:48 11 13 mph 1018.5mb 61f 59f
1:42 11
mph
1018.5mb 61f 59f
1:36 10 13 mph 1018.5mb 61f 59f
1:30 13 14 mph 1018.6mb 61f 59f
1:24 11 13 mph 1018.7mb 61f 59f
1:18 11 13 mph 1018.6mb 61f 59f
1:12 11 13 mph 1018.7mb 61f 59f
1:06 10 11 mph 1018.7mb 61f 59f
1:00 11
mph
1018.6mb 60f 59f
12:54 9 10 mph 1018.5mb 60f 59f
12:48 9 10 mph 1018.6mb 60f 59f
12:42 9 10 mph 1018.7mb 60f 59f
12:36 10
mph
1018.7mb 60f 59f
12:30 10 11 mph 1018.7mb 60f 59f
12:24 10 11 mph 1018.7mb 60f 59f
12:18 9 10 mph 1018.6mb 60f 59f
12:12 9 10 mph 1018.7mb 60f 59f
12:06 9 10 mph 1018.9mb 60f 59f
12:00 9 10 mph 1018.7mb 60f 59f
11:54 9 11 mph 1018.8mb 60f 59f
11:48 9 11 mph 1018.8mb 60f 59f
11:42 9 10 mph 1018.7mb 60f 59f
11:36 9 10 mph 1018.6mb 60f 59f
11:30 9 10 mph 1018.6mb 60f 59f
11:24 10 11 mph 1018.8mb 60f 59f
11:18 10
mph
1018.8mb 60f 59f
11:12 9
mph
1018.7mb 60f 59f
11:06 9
mph
1018.7mb 60f 59f
11:00 9
mph
1018.6mb 60f 59f
10:54 8 9 mph 1018.6mb 60f 59f
10:48 7 8 mph 1018.7mb 60f 59f
10:42 7 8 mph 1018.7mb 60f 59f
10:36 8
mph
1018.7mb 60f 59f
10:30 6
mph
1018.6mb 60f 60f
10:24 5 6 mph 1018.5mb 60f 60f
10:18 5 6 mph 1018.6mb 60f 60f
10:12 5
mph
1018.6mb 60f 59f
10:06 5 6 mph 1018.6mb 60f 59f
10:00 5 6 mph 1018.6mb 60f 59f
9:54 5 6 mph 1018.5mb 60f 60f
9:48 5 7 mph 1018.5mb 59f 61f
9:42 3 6 mph 1018.3mb 59f 60f
9:36 5 6 mph 1018.2mb 59f 61f
9:30 5 6 mph 1018.3mb 59f 60f
9:24 6 8 mph 1018.3mb 59f 60f
9:18 3 7 mph 1018.3mb 59f 61f
9:12 5 6 mph 1018.2mb 59f 61f
9:06 5 6 mph 1018.2mb 59f 61f
9:00 3 6 mph 1018mb 59f 61f
8:54 3 5 mph 1017.9mb 59f 60f
8:48 5 7 mph 1017.7mb 59f 60f
8:42 3 9 mph 1017.6mb 59f 60f
8:36 7 8 mph 1017.6mb 59f 59f
8:30 6 8 mph 1017.5mb 59f 59f
8:24 6 8 mph 1017.4mb 59f 59f
8:18 2 5 mph 1017.4mb 59f 59f
8:12 5 6 mph 1017.3mb 59f 58f
8:06 5 8 mph 1017.3mb 59f 58f
8:00 8 9 mph 1017.3mb 59f 57f
7:54 5 8 mph 1017.4mb 59f 57f
7:48 6 7 mph 1017.4mb 59f 57f
7:42 6 7 mph 1017.4mb 59f 57f
7:36 6 7 mph 1017.4mb 59f 56f
7:30 5 8 mph 1017.4mb 59f 56f
7:24 7 9 mph 1017.3mb 59f 56f
7:18 7 9 mph 1017.2mb 59f 56f
7:12 7 9 mph 1017.2mb 59f 56f
7:06 7 8 mph 1017.2mb 59f 56f
7:00 6 8 mph 1017.1mb 59f 56f
6:54 6 8 mph 1017.1mb 59f 56f
6:48 6
mph
1017mb 59f 56f
6:42 5 7 mph 1017mb 59f 56f
6:36 6 8 mph 1017mb 59f 56f
6:30 6 7 mph 1017mb 59f 56f
6:24 5 6 mph 1016.9mb 59f 56f
6:18 6 7 mph 1016.9mb 59f 56f
6:12 6 7 mph 1016.8mb 59f 56f
6:06 6 7 mph 1016.8mb 59f 56f
6:00 5 6 mph 1016.8mb 59f 56f
5:54 5 6 mph 1016.8mb 59f 56f
5:48 5 6 mph 1016.7mb 59f 56f
5:42 6
mph
1016.6mb 59f 56f
5:36 5 7 mph 1016.5mb 59f 56f
5:30 3 5 mph 1016.5mb 59f 56f
5:24 3 5 mph 1016.5mb 59f 56f
5:18 3 6 mph 1016.6mb 59f 56f
5:12 3 5 mph 1016.5mb 59f 56f
5:06 5
mph
1016.6mb 59f 56f
5:00 3
mph
1016.6mb 59f 56f
4:54 3 5 mph 1016.6mb 59f 56f
4:48 3
mph
1016.6mb 59f 56f
4:42 3 5 mph 1016.6mb 59f 56f
4:36 2 5 mph 1016.6mb 59f 57f
4:30 3 6 mph 1016.6mb 59f 56f
4:24 5 6 mph 1016.7mb 59f 56f
4:18 3 5 mph 1016.6mb 59f 56f
4:12 3 5 mph 1016.6mb 59f 56f
4:06 3 6 mph 1016.6mb 59f 56f
4:00 5 6 mph 1016.5mb 59f 56f
3:54 5 6 mph 1016.6mb 59f 56f
3:48 5 6 mph 1016.6mb 60f 56f
3:42 5 6 mph 1016.6mb 60f 56f
3:36 5 6 mph 1016.6mb 60f 56f
3:30 6
mph
1016.6mb 60f 56f
3:24 5 6 mph 1016.6mb 60f 56f
3:18 5 6 mph 1016.6mb 60f 56f
3:12 3 6 mph 1016.7mb 60f 56f
3:06 5 6 mph 1016.7mb 60f 56f
3:00 5
mph
1016.6mb 60f 56f
2:54 5 6 mph 1016.6mb 60f 56f
2:48 5 6 mph 1016.5mb 60f 56f
2:42 5
mph
1016.6mb 60f 56f
2:36 5
mph
1016.6mb 60f 56f
2:30 3 5 mph 1016.7mb 60f 56f
2:24 3
mph
1016.8mb 60f 56f
2:18 2 3 mph 1016.8mb 60f 56f
2:12 1 3 mph 1016.9mb 60f 56f
2:06 3 5 mph 1016.9mb 60f 57f
2:00 2 3 mph 1016.9mb 60f 57f
1:54 2 3 mph 1016.9mb 60f 57f
1:48 2 5 mph 1017mb 60f 57f
1:42 3 5 mph 1017.1mb 60f 57f
1:36 3 5 mph 1017.1mb 60f 57f
1:30 3 5 mph 1017mb 60f 57f
1:24 3 6 mph 1017mb 60f 56f
1:18 5 6 mph 1017mb 60f 56f
1:12 3 5 mph 1017mb 60f 56f
1:06 5 6 mph 1017mb 60f 56f